Time;durP1;ratioP1;P1;durP2;ratioP2;P2;SDS_P1;SDS_P2;PMS_P1;PMS_P2;Temp;Humidity;BMP_temperature;BMP_pressure;BME280_temperature;BME280_humidity;BME280_pressure;Samples;Min_cycle;Max_cycle;Signal;HPM_P1;HPM_P2
2023/10/04 00:02:09;;;;;;;2.20;1.60;;;10.40;99.90;;;9.92;100.00;98350.41;5069192;28;20954;-35
2023/10/04 00:04:35;;;;;;;3.40;1.52;;;10.30;99.90;;;9.94;100.00;98364.41;5064430;28;20035;-35
2023/10/04 00:07:03;;;;;;;4.35;1.80;;;10.30;99.90;;;9.91;100.00;98373.25;5068282;28;20062;-35
2023/10/04 00:09:29;;;;;;;3.20;1.63;;;10.30;99.90;;;9.91;100.00;98378.53;5064463;28;20020;-35
2023/10/04 00:11:55;;;;;;;2.92;1.83;;;10.30;99.90;;;9.89;100.00;98385.59;5066621;28;20111;-35
2023/10/04 00:14:22;;;;;;;4.50;2.03;;;10.30;99.90;;;9.71;100.00;98363.09;5058988;28;20080;-35
2023/10/04 00:16:48;;;;;;;5.82;2.05;;;10.30;99.90;;;9.88;100.00;98393.53;5064038;28;20110;-35
2023/10/04 00:19:14;;;;;;;5.63;1.63;;;10.30;99.90;;;9.87;100.00;98394.41;5065145;28;20353;-35
2023/10/04 00:21:41;;;;;;;3.53;1.70;;;10.30;99.90;;;9.83;100.00;98382.19;5064249;28;20481;-35
2023/10/04 00:24:09;;;;;;;2.60;1.70;;;10.30;99.90;;;9.84;100.00;98387.44;5067950;28;20106;-35
2023/10/04 00:26:35;;;;;;;5.18;1.80;;;10.20;99.90;;;9.84;100.00;98389.22;5064810;28;20037;-35
2023/10/04 00:29:04;;;;;;;5.45;2.03;;;10.20;99.90;;;9.78;100.00;98377.03;5065698;28;20047;-35
2023/10/04 00:31:31;;;;;;;6.15;1.85;;;10.20;99.90;;;9.75;100.00;98382.34;5061583;28;20111;-35
2023/10/04 00:33:57;;;;;;;3.28;2.03;;;10.20;99.90;;;9.77;100.00;98384.94;5065251;28;20492;-35
2023/10/04 00:36:23;;;;;;;4.78;1.80;;;10.20;99.90;;;9.81;100.00;98386.63;5065553;28;20062;-35
2023/10/04 00:38:50;;;;;;;3.53;1.73;;;10.20;99.90;;;9.71;100.00;98372.75;5065751;28;20677;-35
2023/10/04 00:41:19;;;;;;;3.08;1.50;;;10.20;99.90;;;9.62;100.00;98360.63;5064925;28;20623;-35
2023/10/04 00:43:51;;;;;;;4.47;1.70;;;10.20;99.90;;;9.79;100.00;98385.78;5065854;28;20041;-35
2023/10/04 00:46:22;;;;;;;5.47;1.90;;;10.10;99.90;;;9.78;100.00;98382.28;5071849;28;20415;-35
2023/10/04 00:48:53;;;;;;;3.35;1.83;;;10.20;99.90;;;9.75;100.00;98380.56;5064791;28;20492;-35
2023/10/04 00:51:22;;;;;;;3.30;1.75;;;10.10;99.90;;;9.74;100.00;98384.09;5069359;28;20032;-35
2023/10/04 00:53:48;;;;;;;4.45;2.00;;;10.10;99.90;;;9.69;100.00;98387.69;5065781;28;20059;-35
2023/10/04 00:56:16;;;;;;;3.30;1.60;;;10.10;99.90;;;9.70;100.00;98382.41;5068310;28;20261;-35
2023/10/04 00:58:43;;;;;;;2.15;1.60;;;10.10;99.90;;;9.72;100.00;98383.25;5063251;28;20036;-35
2023/10/04 01:01:09;;;;;;;4.15;1.52;;;10.10;99.90;;;9.72;100.00;98382.38;5060058;28;21793;-35
2023/10/04 01:03:37;;;;;;;3.60;1.67;;;10.10;99.90;;;9.70;100.00;98385.03;5067871;28;20067;-35
2023/10/04 01:06:03;;;;;;;2.75;1.55;;;10.00;99.90;;;9.69;100.00;98380.69;5070513;28;20036;-35
2023/10/04 01:08:30;;;;;;;3.30;1.73;;;10.00;99.90;;;9.67;100.00;98374.59;5068367;28;20024;-35
2023/10/04 01:10:56;;;;;;;4.80;1.77;;;10.00;99.90;;;9.65;100.00;98373.72;5071265;28;20068;-35
2023/10/04 01:13:22;;;;;;;3.47;1.63;;;10.00;99.90;;;9.63;100.00;98375.50;5069626;28;20032;-35
2023/10/04 01:15:51;;;;;;;3.63;1.80;;;10.00;99.90;;;9.62;100.00;98376.41;5066549;28;20025;-35
2023/10/04 01:18:17;;;;;;;9.05;1.70;;;10.00;99.90;;;9.60;100.00;98375.59;5063399;28;20492;-35
2023/10/04 01:20:43;;;;;;;3.75;2.05;;;10.00;99.90;;;9.59;100.00;98372.97;5067585;28;20491;-35
2023/10/04 01:23:12;;;;;;;3.47;1.65;;;10.00;99.90;;;9.59;100.00;98367.72;5069565;28;20064;-37
2023/10/04 01:25:41;;;;;;;4.00;1.90;;;10.00;99.90;;;9.58;100.00;98372.09;5056477;28;21274;-36
2023/10/04 01:28:12;;;;;;;7.03;1.92;;;10.00;99.90;;;9.57;100.00;98377.41;5063579;28;20036;-36
2023/10/04 01:30:46;;;;;;;2.53;1.60;;;10.00;99.90;;;9.51;100.00;98370.44;5068003;28;20457;-36
2023/10/04 01:33:16;;;;;;;4.05;1.73;;;9.90;99.90;;;9.52;100.00;98373.06;5067495;28;20376;-36
2023/10/04 01:35:45;;;;;;;4.38;1.95;;;9.90;99.90;;;9.51;100.00;98373.09;5066589;28;20034;-36
2023/10/04 01:38:11;;;;;;;4.60;1.65;;;9.90;99.90;;;9.50;100.00;98369.59;5069034;28;20032;-36
2023/10/04 01:40:38;;;;;;;3.55;1.90;;;9.90;99.90;;;9.45;100.00;98358.25;5065585;28;20391;-36
2023/10/04 01:43:15;;;;;;;3.55;1.70;;;9.90;99.90;;;9.47;100.00;98366.13;5066188;28;20504;-37
2023/10/04 01:45:48;;;;;;;2.80;1.90;;;9.80;99.90;;;9.46;100.00;98374.94;5062742;28;20449;-37
2023/10/04 01:48:20;;;;;;;3.75;1.48;;;9.80;99.90;;;9.43;100.00;98378.50;5071579;28;20040;-36
2023/10/04 01:50:51;;;;;;;2.78;1.75;;;9.80;99.90;;;9.45;100.00;98373.19;5064530;28;20490;-36
2023/10/04 01:53:20;;;;;;;3.30;1.95;;;9.80;99.90;;;9.43;100.00;98372.38;5065897;28;20036;-36
2023/10/04 01:55:45;;;;;;;3.10;1.95;;;9.80;99.90;;;9.43;100.00;98375.00;5059356;28;20036;-37
2023/10/04 01:58:13;;;;;;;2.75;1.70;;;9.80;99.90;;;9.46;100.00;98382.84;5069464;28;20085;-37
2023/10/04 02:00:39;;;;;;;3.13;1.92;;;9.80;99.90;;;9.46;100.00;98374.94;5060185;28;20040;-37
2023/10/04 02:03:07;;;;;;;4.55;1.92;;;9.80;99.90;;;9.42;100.00;98379.41;5070107;28;20094;-37
2023/10/04 02:05:37;;;;;;;5.47;1.95;;;9.80;99.90;;;9.34;100.00;98368.97;5066236;28;20078;-37
2023/10/04 02:08:07;;;;;;;5.30;1.80;;;9.80;99.90;;;9.40;100.00;98375.91;5068282;28;20028;-37
2023/10/04 02:10:36;;;;;;;2.90;1.70;;;9.80;99.90;;;9.39;100.00;98382.06;5066598;28;20028;-37
2023/10/04 02:13:14;;;;;;;3.20;1.80;;;9.80;99.90;;;9.30;100.00;98361.16;5054773;28;20357;-37
2023/10/04 02:15:41;;;;;;;3.50;1.75;;;9.80;99.90;;;9.42;100.00;98381.13;5059234;28;20031;-37
2023/10/04 02:18:07;;;;;;;4.07;1.95;;;9.80;99.90;;;9.42;100.00;98383.78;5067517;28;20036;-37
2023/10/04 02:20:34;;;;;;;3.13;1.80;;;9.80;99.90;;;9.38;100.00;98368.94;5065034;28;20058;-37
2023/10/04 02:23:03;;;;;;;3.15;1.60;;;9.80;99.90;;;9.38;100.00;98382.09;5072612;28;20039;-37
2023/10/04 02:25:29;;;;;;;2.28;1.60;;;9.80;99.90;;;9.36;100.00;98377.72;5068416;28;20401;-36
2023/10/04 02:28:07;;;;;;;3.92;1.90;;;9.80;99.90;;;9.35;100.00;98385.66;5069132;28;20047;-36
2023/10/04 02:30:34;;;;;;;3.60;1.80;;;9.70;99.90;;;9.36;100.00;98384.75;5069822;28;20455;-36
2023/10/04 02:33:00;;;;;;;3.58;1.90;;;9.70;99.90;;;9.34;100.00;98371.59;5068595;28;20074;-36
2023/10/04 02:35:41;;;;;;;4.35;1.92;;;9.70;99.90;;;9.39;100.00;98389.13;5067107;28;22048;-36
2023/10/04 02:38:16;;;;;;;3.67;1.83;;;9.80;99.90;;;9.34;100.00;98382.13;5068733;28;20496;-36
2023/10/04 02:40:46;;;;;;;3.17;1.80;;;9.80;99.90;;;9.36;100.00;98387.38;5069426;28;20192;-36
2023/10/04 02:43:15;;;;;;;4.53;2.05;;;9.70;99.90;;;9.30;100.00;98379.59;5068493;28;20032;-37
2023/10/04 02:45:41;;;;;;;5.95;2.30;;;9.70;99.90;;;9.32;100.00;98389.19;5066406;28;20572;-36
2023/10/04 02:48:10;;;;;;;7.43;2.20;;;9.70;99.90;;;9.31;100.00;98392.75;5070409;28;20476;-38
2023/10/04 02:50:42;;;;;;;6.03;2.03;;;9.70;99.90;;;9.24;100.00;98380.56;5069491;28;20024;-37
2023/10/04 02:53:12;;;;;;;6.22;2.10;;;9.70;99.90;;;9.31;100.00;98398.00;5068609;28;20746;-37
2023/10/04 02:55:39;;;;;;;3.75;2.00;;;9.70;99.90;;;9.32;100.00;98393.59;5067399;28;20312;-37
2023/10/04 02:58:06;;;;;;;3.40;1.55;;;9.70;99.90;;;9.21;100.00;98380.59;5068168;28;20539;-36
2023/10/04 03:00:33;;;;;;;2.88;1.70;;;9.70;99.90;;;9.30;100.00;98403.28;5068499;28;20430;-36
2023/10/04 03:02:59;;;;;;;5.15;2.20;;;9.70;99.90;;;9.23;100.00;98397.25;5070078;28;20032;-36
2023/10/04 03:05:28;;;;;;;3.38;1.65;;;9.70;99.90;;;9.29;100.00;98404.16;5069588;28;20050;-36
2023/10/04 03:07:55;;;;;;;3.92;1.90;;;9.70;99.90;;;9.26;100.00;98397.22;5062929;28;20024;-36
2023/10/04 03:10:23;;;;;;;3.55;2.00;;;9.70;99.90;;;9.31;100.00;98397.13;5071474;28;20418;-37
2023/10/04 03:12:53;;;;;;;6.35;2.08;;;9.70;99.90;;;9.41;100.00;98401.34;5066869;28;20115;-37
2023/10/04 03:15:23;;;;;;;3.65;1.85;;;9.80;99.90;;;9.52;100.00;98394.13;5064957;28;20031;-38
2023/10/04 03:17:52;;;;;;;3.17;1.95;;;9.90;99.90;;;9.60;100.00;98388.75;5066370;28;20032;-36
2023/10/04 03:20:29;;;;;;;4.13;2.05;;;10.00;99.90;;;9.60;100.00;98386.13;5065650;28;20062;-38
2023/10/04 03:22:55;;;;;;;6.93;2.30;;;10.00;99.90;;;9.61;100.00;98384.34;5066970;28;20782;-38
2023/10/04 03:25:26;;;;;;;4.60;1.90;;;10.00;99.90;;;9.59;100.00;98394.03;5067194;28;20792;-37
2023/10/04 03:27:52;;;;;;;4.53;2.30;;;10.00;99.90;;;9.57;100.00;98393.22;5066407;28;20028;-36
2023/10/04 03:30:18;;;;;;;7.07;2.10;;;10.00;99.90;;;9.60;100.00;98399.28;5067579;28;20306;-36
2023/10/04 03:32:52;;;;;;;3.78;2.22;;;10.00;99.90;;;9.59;100.00;98400.16;5069541;28;20166;-36
2023/10/04 03:35:21;;;;;;;4.88;2.00;;;10.00;99.90;;;9.67;100.00;98406.19;5064083;28;20024;-36
2023/10/04 03:37:54;;;;;;;4.75;1.92;;;10.10;99.90;;;9.69;100.00;98403.50;5068706;28;20070;-36
2023/10/04 03:40:22;;;;;;;3.95;1.70;;;10.10;99.90;;;9.69;100.00;98408.78;5069046;28;20400;-37
2023/10/04 03:42:48;;;;;;;4.45;2.13;;;10.10;99.90;;;9.64;100.00;98393.06;5065582;28;20031;-36
2023/10/04 03:45:17;;;;;;;3.90;2.00;;;10.10;99.90;;;9.68;100.00;98400.00;5064617;28;20036;-36
2023/10/04 03:47:45;;;;;;;4.57;2.08;;;10.00;99.90;;;9.66;100.00;98398.31;5063943;28;20085;-36
2023/10/04 03:50:11;;;;;;;2.85;1.80;;;10.00;99.90;;;9.63;100.00;98399.22;5070456;28;20043;-37
2023/10/04 03:52:38;;;;;;;4.78;2.30;;;10.00;99.90;;;9.58;100.00;98398.41;5067510;28;20044;-36
2023/10/04 03:55:09;;;;;;;5.18;2.10;;;9.90;99.90;;;9.54;100.00;98399.38;5063001;28;20061;-36
2023/10/04 03:57:40;;;;;;;5.57;1.90;;;9.90;99.90;;;9.50;100.00;98393.28;5069893;28;20107;-37
2023/10/04 04:00:09;;;;;;;4.05;2.00;;;9.90;99.90;;;9.50;100.00;98397.69;5064826;28;20051;-36
2023/10/04 04:02:34;;;;;;;5.13;1.90;;;9.90;99.90;;;9.47;100.00;98403.88;5068799;28;20024;-36
2023/10/04 04:05:02;;;;;;;3.83;2.13;;;9.90;99.90;;;9.51;100.00;98400.31;5067235;28;21551;-36
2023/10/04 04:07:28;;;;;;;4.35;2.20;;;9.90;99.90;;;9.57;100.00;98399.31;5070981;28;20373;-36
2023/10/04 04:09:54;;;;;;;4.32;2.15;;;9.90;99.90;;;9.61;100.00;98405.41;5067488;28;20027;-36
2023/10/04 04:12:21;;;;;;;6.07;2.08;;;10.00;99.90;;;9.59;100.00;98400.16;5069991;28;20032;-36
2023/10/04 04:14:48;;;;;;;3.80;2.40;;;10.00;99.90;;;9.64;100.00;98408.00;5055644;28;20074;-37
2023/10/04 04:17:14;;;;;;;5.00;1.60;;;10.00;99.90;;;9.66;100.00;98406.22;5056283;28;20064;-37
2023/10/04 04:19:39;;;;;;;4.40;1.83;;;10.00;99.90;;;9.61;100.00;98405.41;5057873;28;20299;-37
2023/10/04 04:22:05;;;;;;;5.20;2.20;;;10.00;99.90;;;9.59;100.00;98410.72;5063451;28;20090;-37
2023/10/04 04:24:31;;;;;;;5.00;2.10;;;10.00;99.90;;;9.47;100.00;98389.84;5066832;28;20076;-37
2023/10/04 04:27:00;;;;;;;3.38;1.60;;;9.90;99.90;;;9.53;100.00;98402.91;5061282;28;20040;-38
2023/10/04 04:29:27;;;;;;;4.53;1.75;;;9.90;99.90;;;9.47;100.00;98408.28;5064156;28;20115;-37
2023/10/04 04:31:53;;;;;;;2.97;1.75;;;9.90;99.90;;;9.43;100.00;98403.97;5063299;28;20255;-37
2023/10/04 04:34:19;;;;;;;3.55;1.67;;;9.80;99.90;;;9.38;100.00;98405.78;5064750;28;20538;-38
2023/10/04 04:36:46;;;;;;;4.65;2.17;;;9.80;99.90;;;9.34;100.00;98416.38;5067380;28;20118;-37
2023/10/04 04:39:16;;;;;;;4.25;1.80;;;9.70;99.90;;;9.14;100.00;98384.22;5061901;28;20387;-37
2023/10/04 04:41:42;;;;;;;4.60;1.95;;;9.70;99.90;;;9.23;100.00;98405.13;5058803;28;20031;-38
2023/10/04 04:44:10;;;;;;;2.88;1.75;;;9.60;99.90;;;9.20;100.00;98407.81;5064761;28;20323;-37
2023/10/04 04:46:35;;;;;;;2.90;1.75;;;9.60;99.90;;;9.15;100.00;98407.00;5068569;28;20109;-40
2023/10/04 04:49:01;;;;;;;3.38;1.90;;;9.60;99.90;;;9.13;100.00;98416.69;5064356;28;20451;-39
2023/10/04 04:51:27;;;;;;;4.40;1.65;;;9.50;99.90;;;9.02;100.00;98408.09;5068550;28;20032;-38
2023/10/04 04:53:53;;;;;;;5.13;1.95;;;9.50;99.90;;;9.08;100.00;98410.63;5067711;28;20031;-39
2023/10/04 04:56:21;;;;;;;4.65;1.85;;;9.50;99.90;;;9.03;100.00;98413.34;5068695;28;20031;-38
2023/10/04 04:58:48;;;;;;;3.72;2.20;;;9.40;99.90;;;8.99;100.00;98406.41;5065759;28;20095;-38
2023/10/04 05:01:14;;;;;;;3.00;1.70;;;9.40;99.90;;;8.89;100.00;98408.25;5066868;28;20086;-39
2023/10/04 05:03:42;;;;;;;4.45;1.88;;;9.40;99.90;;;8.91;100.00;98413.50;5072034;28;20502;-38
2023/10/04 05:06:13;;;;;;;4.28;2.08;;;9.30;99.90;;;8.86;100.00;98410.94;5068033;28;20028;-40
2023/10/04 05:08:40;;;;;;;3.90;1.97;;;9.30;99.90;;;8.86;100.00;98412.69;5069524;28;20115;-38
2023/10/04 05:11:07;;;;;;;4.55;1.90;;;9.30;99.90;;;8.57;100.00;98379.78;5061775;28;20068;-41
2023/10/04 05:13:33;;;;;;;2.83;1.70;;;9.30;99.90;;;8.77;100.00;98414.59;5054944;28;20024;-39
2023/10/04 05:15:59;;;;;;;4.15;2.00;;;9.20;99.90;;;8.79;100.00;98412.81;5062313;28;20044;-39
2023/10/04 05:18:26;;;;;;;5.85;2.15;;;9.20;99.90;;;8.70;100.00;98402.38;5066671;28;20032;-40
2023/10/04 05:20:54;;;;;;;5.35;2.08;;;9.20;99.90;;;8.75;100.00;98411.06;5052097;28;20062;-39
2023/10/04 05:23:24;;;;;;;5.07;2.20;;;9.20;99.90;;;8.73;100.00;98412.00;5065598;28;20074;-39
2023/10/04 05:25:52;;;;;;;4.35;2.00;;;9.20;99.90;;;8.72;100.00;98413.78;5061415;28;20025;-38
2023/10/04 05:28:18;;;;;;;4.85;2.25;;;9.10;99.90;;;8.71;100.00;98414.66;5066430;28;20515;-41
2023/10/04 05:30:46;;;;;;;4.75;2.00;;;9.10;99.90;;;8.57;100.00;98387.66;5070285;28;20372;-39
2023/10/04 05:33:13;;;;;;;4.65;2.08;;;9.10;99.90;;;8.75;100.00;98413.72;5070367;28;20547;-40
2023/10/04 05:35:42;;;;;;;4.15;1.80;;;9.10;99.90;;;8.73;100.00;98409.38;5069034;28;20107;-39
2023/10/04 05:38:08;;;;;;;4.50;2.22;;;9.10;99.90;;;8.74;100.00;98409.34;5069762;28;20020;-39
2023/10/04 05:40:38;;;;;;;5.75;2.10;;;9.10;99.90;;;8.72;100.00;98407.63;5071106;28;20513;-42
2023/10/04 05:43:08;;;;;;;8.93;2.17;;;9.10;99.90;;;8.60;100.00;98382.38;5070947;28;20036;-39
2023/10/04 05:45:34;;;;;;;3.53;2.00;;;9.20;99.90;;;8.77;100.00;98416.31;5066081;28;20044;-40
2023/10/04 05:48:00;;;;;;;2.85;1.40;;;9.20;99.90;;;8.76;100.00;98420.72;5069775;28;20035;-40
2023/10/04 05:50:32;;;;;;;8.25;2.20;;;9.20;99.90;;;8.77;100.00;98424.22;5069766;28;20111;-39
2023/10/04 05:53:01;;;;;;;4.05;2.08;;;9.20;99.90;;;8.81;100.00;98425.94;5066749;28;20043;-40
2023/10/04 05:55:27;;;;;;;4.50;1.98;;;9.20;99.90;;;8.85;100.00;98427.63;5068616;28;20531;-39
2023/10/04 05:57:53;;;;;;;5.32;2.00;;;9.30;99.90;;;8.72;100.00;98400.63;5068376;28;20093;-40
2023/10/04 06:02:55;;;;;;;6.57;1.73;;;9.30;99.90;;;8.97;100.00;98435.34;5067974;28;20033;-39
2023/10/04 06:05:27;;;;;;;3.15;1.75;;;9.40;99.90;;;9.03;100.00;98434.38;5065139;28;20039;-39
2023/10/04 06:07:54;;;;;;;;;;;9.40;99.90;;;9.07;100.00;98437.84;5069780;28;20071;-39
2023/10/04 06:10:22;;;;;;;4.55;2.03;;;9.50;99.90;;;9.08;100.00;98432.56;5073575;28;20368;-41
2023/10/04 06:12:48;;;;;;;4.88;1.85;;;9.50;99.90;;;9.14;100.00;98432.47;5072420;28;20558;-40
2023/10/04 06:15:16;;;;;;;5.40;1.80;;;9.60;99.90;;;9.24;100.00;98435.84;5066984;28;20492;-39
2023/10/04 06:17:43;;;;;;;5.97;2.03;;;9.70;99.90;;;9.33;100.00;98442.72;5070280;28;20043;-39
2023/10/04 06:23:17;;;;;;;5.43;2.00;;;9.80;99.90;;;9.51;100.00;98437.19;5069167;28;20032;-41
2023/10/04 06:25:47;;;;;;;3.75;1.90;;;10.00;99.90;;;9.67;100.00;98455.34;5068046;28;20028;-42
2023/10/04 06:28:13;;;;;;;4.22;1.90;;;10.10;99.90;;;9.65;100.00;98436.94;5066931;28;20085;-39
2023/10/04 06:30:40;;;;;;;2.97;1.42;;;10.20;99.90;;;9.87;100.00;98455.00;5069183;28;20032;-40
2023/10/04 06:33:08;;;;;;;3.58;1.75;;;10.30;99.90;;;9.97;100.00;98453.97;5070843;28;20028;-39
2023/10/04 06:35:35;;;;;;;3.55;1.27;;;10.40;99.90;;;10.05;100.00;98459.09;5067672;28;20028;-39
2023/10/04 06:38:04;;;;;;;5.85;1.40;;;10.50;99.90;;;10.11;100.00;98459.84;5063140;28;20062;-39
2023/10/04 06:40:33;;;;;;;4.30;1.85;;;10.50;99.90;;;10.19;100.00;98461.47;5068675;28;20039;-38
2023/10/04 06:43:04;;;;;;;4.13;1.60;;;10.60;99.90;;;10.28;100.00;98461.31;5066982;28;20404;-38
2023/10/04 06:45:30;;;;;;;5.55;1.70;;;10.70;99.90;;;10.40;100.00;98457.59;5068889;28;20016;-38
2023/10/04 06:47:58;;;;;;;3.28;1.45;;;10.80;99.90;;;10.50;100.00;98467.94;5067752;28;20043;-39
2023/10/04 06:50:32;;;;;;;3.05;1.65;;;10.90;99.90;;;10.60;100.00;98473.03;5069145;28;20078;-38
2023/10/04 06:53:01;;;;;;;4.70;1.50;;;11.00;99.90;;;10.65;100.00;98464.13;5064005;28;21631;-38
2023/10/04 06:55:27;;;;;;;4.07;1.42;;;11.10;99.90;;;10.73;100.00;98476.28;5068352;28;20055;-38
2023/10/04 06:57:53;;;;;;;3.45;1.48;;;11.20;99.90;;;10.82;100.00;98478.75;5067251;28;20147;-40
2023/10/04 07:00:22;;;;;;;4.72;1.60;;;11.20;99.90;;;10.89;100.00;98475.97;5070109;28;20110;-39
2023/10/04 07:02:58;;;;;;;3.22;1.50;;;11.30;99.90;;;11.00;100.00;98467.81;5070052;28;20189;-39
2023/10/04 07:05:32;;;;;;;5.55;1.30;;;11.50;99.90;;;11.13;100.00;98473.69;5069155;28;20233;-40
2023/10/04 07:07:58;;;;;;;2.30;1.17;;;11.60;99.90;;;11.27;100.00;98473.41;5067922;28;20365;-38
2023/10/04 07:10:28;;;;;;;1.35;0.98;;;11.70;99.90;;;11.37;100.00;98487.25;5070306;28;20240;-39
2023/10/04 07:12:56;;;;;;;5.53;1.50;;;11.80;99.90;;;11.43;100.00;98487.09;5070069;28;20063;-39
2023/10/04 07:15:35;;;;;;;3.88;1.33;;;11.80;99.90;;;11.48;100.00;98487.84;5064509;28;20033;-40
2023/10/04 07:18:07;;;;;;;3.90;1.13;;;11.90;99.90;;;11.49;100.00;98484.31;5062910;28;20794;-38
2023/10/04 07:20:34;;;;;;;;;;;11.90;99.90;;;11.54;100.00;98479.81;5068368;28;20028;-39
2023/10/04 07:23:03;;;;;;;4.63;1.50;;;12.00;99.90;;;11.60;100.00;98486.72;5070063;28;20037;-39
2023/10/04 07:25:32;;;;;;;7.93;1.58;;;12.00;99.90;;;11.65;100.00;98490.97;5068324;28;20055;-40
2023/10/04 07:28:02;;;;;;;3.80;1.40;;;12.10;99.90;;;11.70;100.00;98495.28;5067433;28;20016;-38
2023/10/04 07:30:30;;;;;;;4.63;1.48;;;12.10;99.90;;;11.72;100.00;98499.63;5065650;28;20048;-40
2023/10/04 07:32:58;;;;;;;3.95;1.50;;;12.10;99.90;;;11.77;100.00;98496.88;5065720;28;20497;-39
2023/10/04 07:35:25;;;;;;;6.03;1.67;;;12.20;99.90;;;11.76;100.00;98485.44;5066553;28;20126;-41
2023/10/04 07:37:53;;;;;;;4.60;1.60;;;12.30;99.90;;;11.93;100.00;98500.91;5067960;28;20094;-39
2023/10/04 07:40:26;;;;;;;5.78;1.50;;;12.30;99.90;;;11.98;100.00;98493.72;5065354;28;20028;-40
2023/10/04 07:42:53;;;;;;;4.88;1.48;;;12.40;99.90;;;12.05;100.00;98497.09;5065494;28;20150;-40
2023/10/04 07:45:25;;;;;;;5.18;1.38;;;12.50;99.90;;;12.13;100.00;98502.19;5065482;28;20024;-39
2023/10/04 07:47:51;;;;;;;3.33;1.13;;;12.50;99.90;;;12.20;100.00;98501.09;5066074;28;20024;-39
2023/10/04 07:50:28;;;;;;;3.70;1.02;;;12.60;99.90;;;12.21;100.00;98495.78;5066302;28;20373;-40
2023/10/04 07:52:58;;;;;;;2.38;1.00;;;12.70;99.90;;;12.35;100.00;98513.94;5066135;28;20385;-40
2023/10/04 07:55:25;;;;;;;4.78;1.20;;;12.80;99.90;;;12.35;100.00;98508.66;5064239;28;20035;-39
2023/10/04 07:57:53;;;;;;;6.40;1.33;;;12.80;99.90;;;12.46;100.00;98520.75;5065052;28;20039;-40
2023/10/04 08:00:20;;;;;;;3.42;1.50;;;12.80;99.90;;;12.50;100.00;98517.94;5060105;28;20081;-41
2023/10/04 08:02:51;;;;;;;6.72;1.40;;;12.90;99.90;;;12.57;100.00;98513.38;5061384;28;20547;-39
2023/10/04 08:05:20;;;;;;;3.53;1.25;;;13.00;99.90;;;12.62;100.00;98513.25;5065771;28;20036;-40
2023/10/04 08:07:51;;;;;;;4.35;1.17;;;13.00;99.90;;;12.49;100.00;98489.78;5053201;28;20446;-39
2023/10/04 08:10:18;;;;;;;4.53;1.42;;;13.10;99.90;;;12.70;100.00;98512.13;5068998;28;20081;-39
2023/10/04 08:12:45;;;;;;;5.07;1.60;;;13.10;99.90;;;12.77;100.00;98512.81;5068036;28;20396;-40
2023/10/04 08:15:16;;;;;;;5.60;1.42;;;13.20;99.90;;;12.86;100.00;98517.00;5063492;28;20213;-39
2023/10/04 08:17:48;;;;;;;3.00;1.15;;;13.20;99.90;;;12.97;100.00;98509.59;5059386;28;20039;-41
2023/10/04 08:20:14;;;;;;;6.00;1.55;;;13.40;99.90;;;13.04;100.00;98513.81;5064537;28;20043;-41
2023/10/04 08:22:44;;;;;;;6.05;1.65;;;13.40;99.90;;;13.15;100.00;98517.03;5062072;28;20035;-40
2023/10/04 08:25:23;;;;;;;4.47;1.30;;;13.50;99.90;;;13.16;100.00;98494.03;5065850;28;20392;-40
2023/10/04 08:27:49;;;;;;;5.53;1.50;;;13.60;99.90;;;13.36;100.00;98507.56;5058134;28;20461;-40
2023/10/04 08:30:17;;;;;;;6.35;1.60;;;13.70;99.90;;;13.42;100.00;98500.34;5057100;28;20051;-40
2023/10/04 08:32:52;;;;;;;8.23;1.58;;;13.80;99.90;;;13.55;100.00;98512.34;5062220;28;20448;-41
2023/10/04 08:35:24;;;;;;;3.80;1.30;;;13.90;99.90;;;13.57;100.00;98497.25;5064393;28;20035;-40
2023/10/04 08:37:54;;;;;;;5.40;1.70;;;13.90;99.90;;;13.63;100.00;98512.09;5056374;28;20036;-41
2023/10/04 08:40:22;;;;;;;6.15;1.40;;;14.00;99.90;;;13.65;100.00;98508.44;5059865;28;20289;-39
2023/10/04 08:42:52;;;;;;;6.70;1.65;;;14.00;99.90;;;13.76;100.00;98510.75;5063465;28;20020;-41
2023/10/04 08:45:19;;;;;;;4.93;1.40;;;14.10;99.90;;;13.88;100.00;98510.38;5059935;28;20032;-41
2023/10/04 08:47:52;;;;;;;6.20;1.75;;;14.20;99.90;;;13.81;100.00;98487.63;5057786;28;20158;-40
2023/10/04 08:50:33;;;;;;;5.72;1.50;;;14.20;99.90;;;13.97;100.00;98511.84;5063677;28;20562;-41
2023/10/04 08:53:32;;;;;;;3.85;1.20;;;14.30;99.90;;;14.01;100.00;98502.00;5066426;28;20039;-39
2023/10/04 08:56:08;;;;;;;8.30;1.30;;;14.30;99.90;;;14.08;100.00;98500.88;5064443;28;20031;-38
2023/10/04 08:58:36;;;;;;;5.35;1.58;;;14.40;99.90;;;14.09;100.00;98495.53;5064288;28;20075;-39
2023/10/04 09:01:06;;;;;;;4.32;1.55;;;14.40;99.90;;;14.21;100.00;98504.88;5058580;28;20366;-41
2023/10/04 09:03:33;;;;;;;5.50;1.92;;;14.50;99.90;;;14.27;100.00;98502.00;5064359;28;20217;-40
2023/10/04 09:05:59;;;;;;;5.72;1.75;;;14.50;99.90;;;14.30;100.00;98493.94;5063253;28;20059;-40
2023/10/04 09:08:25;;;;;;;4.43;1.30;;;14.60;99.90;;;14.37;100.00;98499.03;5070633;28;20086;-39
2023/10/04 09:10:53;;;;;;;4.60;1.20;;;14.60;99.90;;;14.40;100.00;98489.16;5069793;28;20024;-40
2023/10/04 09:13:19;;;;;;;3.58;1.17;;;14.70;99.90;;;14.42;100.00;98487.31;5064932;28;20562;-39
2023/10/04 09:15:45;;;;;;;6.03;1.48;;;14.70;99.90;;;14.42;100.00;98489.97;5067614;28;20549;-39
2023/10/04 09:18:11;;;;;;;4.13;1.33;;;14.70;99.90;;;14.41;100.00;98485.63;5065797;28;20033;-39
2023/10/04 09:20:36;;;;;;;2.80;1.15;;;14.70;99.90;;;14.41;100.00;98477.66;5062388;28;20200;-39
2023/10/04 09:23:16;;;;;;;3.78;1.52;;;14.70;99.90;;;14.49;100.00;98475.56;5067008;28;20040;-41
2023/10/04 09:25:45;;;;;;;3.05;1.10;;;14.80;99.90;;;14.51;100.00;98472.88;5067822;28;20119;-40
2023/10/04 09:28:11;;;;;;;2.90;1.20;;;14.80;99.90;;;14.56;100.00;98472.72;5066558;28;20484;-40
2023/10/04 09:30:38;;;;;;;5.55;1.20;;;14.80;99.90;;;14.62;100.00;98467.19;5063911;28;20200;-43
2023/10/04 09:33:24;;;;;;;5.43;1.33;;;14.90;99.90;;;14.66;100.00;98477.66;5070125;28;21721;-41
2023/10/04 09:35:51;;;;;;;4.72;1.10;;;15.00;99.90;;;14.74;100.00;98477.38;5066845;28;20487;-40
2023/10/04 09:38:22;;;;;;;5.15;1.30;;;15.00;99.90;;;14.79;100.00;98471.91;5067878;28;20455;-41
2023/10/04 09:40:56;;;;;;;3.15;1.30;;;15.10;99.90;;;14.83;100.00;98478.84;5065630;28;20141;-40
2023/10/04 09:43:36;;;;;;;5.78;1.35;;;15.10;99.90;;;14.88;100.00;98467.13;5064490;28;20043;-40
2023/10/04 09:46:07;;;;;;;5.72;1.35;;;15.20;99.90;;;14.96;100.00;98474.78;5064777;28;20329;-43
2023/10/04 09:48:37;;;;;;;4.80;1.25;;;15.20;99.90;;;15.02;100.00;98469.25;5065102;28;20070;-41
2023/10/04 09:51:05;;;;;;;5.68;1.42;;;15.30;99.90;;;15.12;100.00;98475.06;5067685;28;20163;-40
2023/10/04 09:53:38;;;;;;;2.92;1.10;;;15.40;99.90;;;15.17;100.00;98481.09;5069627;28;20241;-40
2023/10/04 09:56:05;;;;;;;6.00;1.50;;;15.50;99.90;;;15.19;95.15;98481.03;5068798;28;20165;-40
2023/10/04 09:58:32;;;;;;;6.78;1.80;;;15.50;99.90;;;15.19;93.85;98475.72;5069262;28;20036;-39
2023/10/04 10:01:11;;;;;;;3.63;1.30;;;15.50;99.90;;;15.25;100.00;98468.38;5065512;28;20040;-41
2023/10/04 10:03:50;;;;;;;3.80;1.30;;;15.60;99.90;;;15.41;100.00;98457.13;5063267;28;20059;-40
2023/10/04 10:06:32;;;;;;;3.83;1.30;;;15.70;99.90;;;15.51;100.00;98460.31;5062288;28;20060;-40
2023/10/04 10:08:59;;;;;;;;;;;15.80;99.90;;;15.42;87.30;98457.06;5078655;28;20127;-40
2023/10/04 10:11:26;;;;;;;3.17;1.15;;;15.80;99.90;;;15.49;94.61;98465.69;5059842;28;20094;-41
2023/10/04 10:13:56;;;;;;;4.43;1.10;;;15.80;99.90;;;15.51;93.24;98465.63;5069731;28;20510;-40
2023/10/04 10:16:23;;;;;;;2.75;1.17;;;15.80;99.90;;;15.44;93.06;98452.56;5061643;28;20047;-43
2023/10/04 10:18:49;;;;;;;4.30;1.98;;;15.80;99.90;;;15.59;94.44;98467.03;5070190;28;20039;-40
2023/10/04 10:21:15;;;;;;;5.45;1.80;;;15.80;99.90;;;15.68;98.38;98465.78;5062921;28;20028;-41
2023/10/04 10:23:57;;;;;;;3.08;1.30;;;16.00;99.90;;;15.64;96.38;98472.16;5067709;28;20028;-38
2023/10/04 10:26:24;;;;;;;4.53;1.15;;;15.90;99.90;;;15.65;100.00;98464.13;5063978;28;20154;-38
2023/10/04 10:29:03;;;;;;;4.50;1.60;;;15.90;99.90;;;15.76;100.00;98473.50;5057736;28;20048;-38
2023/10/04 10:31:29;;;;;;;3.53;1.25;;;16.00;99.90;;;15.86;100.00;98476.63;5065807;28;20035;-38
2023/10/04 10:33:56;;;;;;;4.57;1.20;;;16.10;99.90;;;15.77;95.56;98481.44;5067516;28;20028;-39